East Butler, Pennsylvania
Current Conditions -  °F | °C
As of 7:15 AM on Monday 26 Jan 2015 (Local Time) from KBTP Reporting Station
Overcast Overcast  
Wind Chill: 15°   Ceiling: 2100
Heat Index: 25°   Visibility: 3mi
Dew Point: 19°   Wind: 10mph
Humidity: 80%   Direction: 50°NE
Pressure: 29.71"   Gusts: NA
Location:  40.88°N, 79.85°W
Report Text: KBTP 261215Z AUTO 05009KT 3SM OVC021 M04/M07 A2971 RMK AO1
Loading
Personal Weather Stations






























Interactive Weather Map New forecast layout! Learn more

10-Day Weather Forecast

Advertisements
Track Severe Weather on mobile